AFR45M LFPG-KPHX
Flight info
| Callsign | AFR45M |
|---|---|
| Flight time | N/A |
| Altitude | 30000 |
| Route | ATREX DCT VESAN DCT RATUK DCT SOVAT/N0474F360 L613 SANDY DCT OKSAW DCT TEWXI DCT LIPGO DCT ENULA DCT REVNU DCT PIGET DCT SUNOT/M082F360 DCT 58N020W 5930N03000W 60N040W 60N050W/M082F380 DCT RADUN N938B PEPKI/N0483F380 N938B LOPVI DCT 5830N07000W 5630N08000W 53N090W/N0481F400 DCT KP18C DCT KP09A DCT DPR DCT RAP DCT KD60U DCT HBU DCT GUP EAGUL6 |
| Aircraft | B77W/H-SDE1E2E3FGHIJ2J3J4J5M1RWXY/LB1D1 |
Departure
| Time | 2026-05-08 09:11 |
|---|---|
| Airport | Charles de Gaulle International Airport (LFPG) |
Arrival
| Time | N/A |
|---|---|
| Airport | Phoenix Sky Harbor International Airport (KPHX) |
| Time | Latitude | Longitude | Altitude | Speed | Heading |
|---|---|---|---|---|---|
| 2026-05-08 08:17 | 49.00112 | 2.57431 | 359 ft | 0 kts | 13° |
| 2026-05-08 08:58 | 49.00103 | 2.57427 | 366 ft | 4 kts | 12° |
| 2026-05-08 08:58 | 49.00077 | 2.57419 | 359 ft | 4 kts | 11° |
| 2026-05-08 08:58 | 49.00054 | 2.57413 | 367 ft | 4 kts | 20° |
| 2026-05-08 08:58 | 49.00042 | 2.57390 | 364 ft | 4 kts | 88° |
| 2026-05-08 08:59 | 49.00042 | 2.57350 | 361 ft | 3 kts | 86° |
| 2026-05-08 08:59 | 49.00042 | 2.57345 | 359 ft | 0 kts | 85° |
| 2026-05-08 09:02 | 49.00042 | 2.57352 | 364 ft | 4 kts | 86° |
| 2026-05-08 09:02 | 49.00046 | 2.57440 | 367 ft | 11 kts | 86° |
| 2026-05-08 09:03 | 49.00051 | 2.57552 | 364 ft | 11 kts | 86° |
| 2026-05-08 09:03 | 49.00059 | 2.57664 | 362 ft | 11 kts | 82° |
| 2026-05-08 09:03 | 49.00065 | 2.57783 | 364 ft | 14 kts | 86° |
| 2026-05-08 09:03 | 49.00074 | 2.57983 | 364 ft | 22 kts | 86° |
| 2026-05-08 09:04 | 49.00086 | 2.58206 | 365 ft | 14 kts | 85° |
| 2026-05-08 09:04 | 49.00041 | 2.58315 | 365 ft | 16 kts | 192° |
| 2026-05-08 09:04 | 49.00002 | 2.58116 | 368 ft | 25 kts | 265° |
| 2026-05-08 09:04 | 48.99991 | 2.57923 | 365 ft | 17 kts | 265° |
| 2026-05-08 09:05 | 48.99982 | 2.57746 | 361 ft | 17 kts | 265° |
| 2026-05-08 09:05 | 48.99971 | 2.57568 | 362 ft | 17 kts | 264° |
| 2026-05-08 09:05 | 48.99960 | 2.57392 | 363 ft | 17 kts | 264° |
| 2026-05-08 09:05 | 48.99949 | 2.57215 | 364 ft | 17 kts | 265° |
| 2026-05-08 09:06 | 48.99942 | 2.57038 | 365 ft | 17 kts | 266° |
| 2026-05-08 09:06 | 48.99934 | 2.56860 | 359 ft | 17 kts | 265° |
| 2026-05-08 09:06 | 48.99925 | 2.56684 | 364 ft | 17 kts | 266° |
| 2026-05-08 09:06 | 48.99920 | 2.56566 | 364 ft | 17 kts | 266° |
| 2026-05-08 09:07 | 48.99907 | 2.56332 | 360 ft | 17 kts | 265° |
| 2026-05-08 09:07 | 48.99901 | 2.56212 | 364 ft | 17 kts | 265° |
| 2026-05-08 09:07 | 48.99888 | 2.55978 | 365 ft | 17 kts | 272° |
| 2026-05-08 09:07 | 48.99905 | 2.55861 | 368 ft | 17 kts | 284° |
| 2026-05-08 09:08 | 48.99966 | 2.55647 | 363 ft | 17 kts | 299° |
| 2026-05-08 09:08 | 48.99987 | 2.55532 | 359 ft | 17 kts | 272° |
| 2026-05-08 09:08 | 48.99968 | 2.55397 | 366 ft | 10 kts | 226° |
| 2026-05-08 09:08 | 48.99902 | 2.55397 | 364 ft | 10 kts | 164° |
| 2026-05-08 09:09 | 48.99834 | 2.55427 | 364 ft | 10 kts | 164° |
| 2026-05-08 09:09 | 48.99765 | 2.55447 | 362 ft | 10 kts | 165° |
| 2026-05-08 09:09 | 48.99694 | 2.55456 | 363 ft | 10 kts | 178° |
| 2026-05-08 09:09 | 48.99639 | 2.55490 | 365 ft | 6 kts | 148° |
| 2026-05-08 09:10 | 48.99600 | 2.55535 | 364 ft | 9 kts | 130° |
| 2026-05-08 09:10 | 48.99589 | 2.55633 | 362 ft | 10 kts | 85° |
| 2026-05-08 09:10 | 48.99593 | 2.55703 | 361 ft | 13 kts | 85° |
| 2026-05-08 09:10 | 48.99616 | 2.56133 | 363 ft | 76 kts | 85° |
| 2026-05-08 09:11 | 48.99680 | 2.57292 | 357 ft | 141 kts | 85° |
| 2026-05-08 09:11 | 48.99770 | 2.59014 | 479 ft | 174 kts | 86° |
| 2026-05-08 09:11 | 48.99829 | 2.60841 | 1044 ft | 177 kts | 86° |
| 2026-05-08 09:11 | 48.99896 | 2.62720 | 1736 ft | 175 kts | 86° |
| 2026-05-08 09:12 | 48.99991 | 2.64586 | 2333 ft | 180 kts | 84° |
| 2026-05-08 09:12 | 49.00111 | 2.66512 | 2904 ft | 184 kts | 85° |
| 2026-05-08 09:12 | 49.00215 | 2.68456 | 3472 ft | 186 kts | 85° |
| 2026-05-08 09:12 | 49.00349 | 2.70507 | 3797 ft | 203 kts | 84° |
| 2026-05-08 09:13 | 49.00508 | 2.72726 | 4143 ft | 218 kts | 84° |
| 2026-05-08 09:13 | 49.00632 | 2.75128 | 4511 ft | 237 kts | 86° |
| 2026-05-08 09:13 | 49.00743 | 2.77715 | 4871 ft | 255 kts | 85° |
| 2026-05-08 09:13 | 49.00884 | 2.80455 | 5458 ft | 263 kts | 85° |
| 2026-05-08 09:14 | 49.01048 | 2.83250 | 6152 ft | 265 kts | 78° |
| 2026-05-08 09:14 | 49.01807 | 2.85825 | 6681 ft | 271 kts | 46° |
| 2026-05-08 09:14 | 49.03353 | 2.87433 | 7340 ft | 272 kts | 16° |
| 2026-05-08 09:14 | 49.05212 | 2.87733 | 8020 ft | 271 kts | 351° |
| 2026-05-08 09:15 | 49.06981 | 2.86893 | 8697 ft | 269 kts | 337° |
| 2026-05-08 09:15 | 49.08722 | 2.85735 | 9284 ft | 277 kts | 334° |
| 2026-05-08 09:15 | 49.10492 | 2.84479 | 9888 ft | 284 kts | 333° |
| 2026-05-08 09:15 | 49.12309 | 2.83184 | 10434 ft | 294 kts | 333° |
| 2026-05-08 09:16 | 49.14235 | 2.81817 | 10631 ft | 318 kts | 334° |
| 2026-05-08 09:16 | 49.16313 | 2.80353 | 10820 ft | 342 kts | 334° |
| 2026-05-08 09:16 | 49.18551 | 2.78788 | 11065 ft | 364 kts | 334° |
| 2026-05-08 09:16 | 49.20899 | 2.77154 | 11647 ft | 376 kts | 334° |
| 2026-05-08 09:17 | 49.23313 | 2.75481 | 12425 ft | 384 kts | 334° |
| 2026-05-08 09:17 | 49.25765 | 2.73786 | 13325 ft | 389 kts | 334° |
| 2026-05-08 09:17 | 49.28247 | 2.72070 | 14192 ft | 395 kts | 334° |
| 2026-05-08 09:17 | 49.30772 | 2.70324 | 15004 ft | 400 kts | 334° |
| 2026-05-08 09:18 | 49.33329 | 2.68552 | 15872 ft | 404 kts | 334° |
| 2026-05-08 09:18 | 49.35899 | 2.66769 | 16705 ft | 409 kts | 334° |
| 2026-05-08 09:18 | 49.38500 | 2.64961 | 17571 ft | 413 kts | 334° |
| 2026-05-08 09:18 | 49.41135 | 2.63128 | 18368 ft | 418 kts | 334° |
| 2026-05-08 09:19 | 49.43804 | 2.61269 | 19081 ft | 423 kts | 334° |
| 2026-05-08 09:19 | 49.46490 | 2.59396 | 19802 ft | 426 kts | 334° |
| 2026-05-08 09:19 | 49.49203 | 2.57503 | 20535 ft | 430 kts | 333° |
| 2026-05-08 09:19 | 49.51939 | 2.55589 | 21243 ft | 434 kts | 334° |
| 2026-05-08 09:20 | 49.54710 | 2.53651 | 21930 ft | 438 kts | 334° |
| 2026-05-08 09:20 | 49.57492 | 2.51702 | 22602 ft | 442 kts | 334° |
| 2026-05-08 09:20 | 49.60310 | 2.49725 | 23283 ft | 446 kts | 333° |
| 2026-05-08 09:20 | 49.63149 | 2.47731 | 23892 ft | 450 kts | 333° |
| 2026-05-08 09:21 | 49.66019 | 2.45712 | 24425 ft | 454 kts | 333° |
| 2026-05-08 09:21 | 49.68904 | 2.43680 | 24992 ft | 457 kts | 333° |
| 2026-05-08 09:22 | 49.86833 | 2.31908 | 28004 ft | 478 kts | 338° |
| 2026-05-08 09:23 | 49.89976 | 2.30163 | 28452 ft | 481 kts | 338° |
| 2026-05-08 09:23 | 49.93132 | 2.28394 | 28883 ft | 484 kts | 338° |
| 2026-05-08 09:23 | 49.96310 | 2.26584 | 29339 ft | 487 kts | 338° |
| 2026-05-08 09:23 | 49.99488 | 2.24750 | 29811 ft | 488 kts | 338° |
| 2026-05-08 09:24 | 50.02669 | 2.22900 | 30364 ft | 486 kts | 338° |
| 2026-05-08 09:24 | 50.05827 | 2.21055 | 30947 ft | 483 kts | 338° |
| 2026-05-08 09:24 | 50.08971 | 2.19216 | 31510 ft | 480 kts | 337° |
| 2026-05-08 09:24 | 50.12102 | 2.17382 | 32023 ft | 479 kts | 337° |
| 2026-05-08 09:25 | 50.15193 | 2.15569 | 32092 ft | 484 kts | 337° |
| 2026-05-08 09:25 | 50.21487 | 2.11872 | 32085 ft | 480 kts | 337° |
| 2026-05-08 09:26 | 50.27714 | 2.08206 | 32090 ft | 478 kts | 337° |
| 2026-05-08 09:26 | 50.33907 | 2.04463 | 32090 ft | 476 kts | 333° |
| 2026-05-08 09:27 | 50.39602 | 1.99265 | 32093 ft | 473 kts | 322° |
| 2026-05-08 09:27 | 50.44629 | 1.92654 | 32102 ft | 472 kts | 316° |
| 2026-05-08 09:28 | 50.49549 | 1.85814 | 32108 ft | 474 kts | 316° |
| 2026-05-08 09:28 | 50.54520 | 1.78969 | 32108 ft | 475 kts | 317° |
| 2026-05-08 09:29 | 50.59505 | 1.72131 | 32102 ft | 475 kts | 317° |
| 2026-05-08 09:29 | 50.64483 | 1.65284 | 32106 ft | 475 kts | 317° |
| 2026-05-08 09:30 | 50.69457 | 1.58414 | 32103 ft | 475 kts | 317° |
| 2026-05-08 09:30 | 50.74425 | 1.51530 | 32107 ft | 475 kts | 317° |
| 2026-05-08 09:31 | 50.79355 | 1.44683 | 32108 ft | 474 kts | 317° |
| 2026-05-08 09:31 | 50.84306 | 1.37795 | 32116 ft | 474 kts | 317° |
| 2026-05-08 09:32 | 50.89254 | 1.30891 | 32104 ft | 473 kts | 317° |
| 2026-05-08 09:32 | 50.94182 | 1.23994 | 32108 ft | 473 kts | 317° |
| 2026-05-08 09:32 | 50.96663 | 1.20511 | 32243 ft | 477 kts | 317° |
| 2026-05-08 09:33 | 50.99147 | 1.17023 | 32668 ft | 476 kts | 317° |
| 2026-05-08 09:33 | 51.01620 | 1.13545 | 33221 ft | 472 kts | 317° |
| 2026-05-08 09:33 | 51.03995 | 1.09973 | 33782 ft | 467 kts | 310° |
| 2026-05-08 09:33 | 51.05999 | 1.05955 | 34145 ft | 465 kts | 303° |
| 2026-05-08 09:34 | 51.07683 | 1.01557 | 34097 ft | 466 kts | 296° |
| 2026-05-08 09:34 | 51.10134 | 0.92074 | 34098 ft | 458 kts | 290° |
| 2026-05-08 09:35 | 51.10890 | 0.88897 | 34077 ft | 455 kts | 290° |
| 2026-05-08 09:35 | 51.13114 | 0.79580 | 34038 ft | 448 kts | 290° |
| 2026-05-08 09:36 | 51.15378 | 0.70198 | 34022 ft | 457 kts | 291° |
| 2026-05-08 09:36 | 51.17672 | 0.60740 | 33977 ft | 457 kts | 291° |
| 2026-05-08 09:37 | 51.19963 | 0.51277 | 33967 ft | 457 kts | 291° |
| 2026-05-08 09:37 | 51.22241 | 0.41832 | 33967 ft | 454 kts | 291° |
| 2026-05-08 09:38 | 51.24497 | 0.32422 | 33964 ft | 452 kts | 291° |
| 2026-05-08 09:38 | 51.26724 | 0.23076 | 33995 ft | 449 kts | 291° |
| 2026-05-08 09:39 | 51.28938 | 0.13764 | 34027 ft | 448 kts | 291° |
| 2026-05-08 09:39 | 51.31141 | 0.04465 | 34057 ft | 448 kts | 291° |
| 2026-05-08 09:40 | 51.33320 | -0.04781 | 34106 ft | 446 kts | 292° |
| 2026-05-08 09:40 | 51.35496 | -0.14045 | 34099 ft | 444 kts | 291° |
| 2026-05-08 09:41 | 51.37653 | -0.23284 | 34095 ft | 441 kts | 291° |
| 2026-05-08 09:41 | 51.39797 | -0.32501 | 34102 ft | 440 kts | 291° |
| 2026-05-08 09:42 | 51.41910 | -0.41617 | 34105 ft | 439 kts | 291° |
| 2026-05-08 09:42 | 51.44027 | -0.50792 | 34105 ft | 439 kts | 291° |
| 2026-05-08 09:43 | 51.46127 | -0.59932 | 34102 ft | 440 kts | 291° |
| 2026-05-08 09:43 | 51.47995 | -0.68104 | 34106 ft | 441 kts | 291° |
| 2026-05-08 09:44 | 51.50104 | -0.77358 | 34094 ft | 442 kts | 291° |
| 2026-05-08 09:44 | 51.52210 | -0.86638 | 34091 ft | 442 kts | 291° |
| 2026-05-08 09:45 | 51.53811 | -0.93727 | 34083 ft | 443 kts | 291° |
| 2026-05-08 09:45 | 51.55905 | -1.03058 | 34066 ft | 440 kts | 291° |
| 2026-05-08 09:46 | 51.57977 | -1.12259 | 34069 ft | 436 kts | 291° |
| 2026-05-08 09:46 | 51.60017 | -1.21420 | 34074 ft | 433 kts | 291° |
| 2026-05-08 09:47 | 51.62040 | -1.30538 | 34073 ft | 431 kts | 291° |
| 2026-05-08 09:47 | 51.64055 | -1.39641 | 34074 ft | 432 kts | 291° |
| 2026-05-08 09:48 | 51.66061 | -1.48741 | 34075 ft | 431 kts | 291° |
| 2026-05-08 09:48 | 51.68049 | -1.57841 | 34074 ft | 430 kts | 291° |
| 2026-05-08 09:49 | 51.70044 | -1.66940 | 34077 ft | 430 kts | 292° |
| 2026-05-08 09:49 | 51.72540 | -1.75609 | 34082 ft | 429 kts | 297° |
| 2026-05-08 09:50 | 51.75242 | -1.84215 | 34076 ft | 430 kts | 297° |
| 2026-05-08 09:50 | 51.77917 | -1.92866 | 34067 ft | 430 kts | 297° |
| 2026-05-08 09:51 | 51.80588 | -2.01505 | 34080 ft | 429 kts | 297° |
| 2026-05-08 09:51 | 51.83083 | -2.08420 | 34076 ft | 428 kts | 301° |
| 2026-05-08 09:52 | 51.86245 | -2.16604 | 34074 ft | 429 kts | 301° |
| 2026-05-08 09:52 | 51.89930 | -2.26133 | 34076 ft | 429 kts | 301° |
| 2026-05-08 09:53 | 51.92576 | -2.33021 | 34078 ft | 430 kts | 301° |
| 2026-05-08 09:53 | 51.95721 | -2.41253 | 34072 ft | 430 kts | 301° |
| 2026-05-08 09:54 | 51.98892 | -2.49493 | 34066 ft | 431 kts | 301° |
| 2026-05-08 09:54 | 52.02062 | -2.57662 | 34089 ft | 431 kts | 299° |
| 2026-05-08 09:55 | 52.05678 | -2.67440 | 34068 ft | 432 kts | 299° |
| 2026-05-08 09:55 | 52.08269 | -2.74401 | 34072 ft | 433 kts | 300° |
| 2026-05-08 09:56 | 52.11402 | -2.82773 | 34069 ft | 433 kts | 300° |
| 2026-05-08 09:56 | 52.14533 | -2.91139 | 34074 ft | 433 kts | 300° |
| 2026-05-08 09:57 | 52.19218 | -3.03729 | 34065 ft | 433 kts | 299° |
| 2026-05-08 09:57 | 52.22324 | -3.12079 | 34071 ft | 433 kts | 299° |
| 2026-05-08 09:58 | 52.25443 | -3.20507 | 34077 ft | 434 kts | 298° |
| 2026-05-08 09:58 | 52.28557 | -3.28961 | 34065 ft | 435 kts | 298° |
| 2026-05-08 09:59 | 52.31667 | -3.37431 | 34060 ft | 435 kts | 298° |
| 2026-05-08 09:59 | 52.34774 | -3.45920 | 34061 ft | 435 kts | 298° |
| 2026-05-08 10:00 | 52.37874 | -3.54420 | 34060 ft | 434 kts | 298° |
| 2026-05-08 10:00 | 52.40960 | -3.62904 | 34060 ft | 434 kts | 298° |
| 2026-05-08 10:01 | 52.44028 | -3.71362 | 34060 ft | 433 kts | 298° |
| 2026-05-08 10:01 | 52.47099 | -3.79867 | 34078 ft | 433 kts | 297° |
| 2026-05-08 10:02 | 52.50166 | -3.88391 | 34066 ft | 434 kts | 297° |
| 2026-05-08 10:02 | 52.53231 | -3.96936 | 34063 ft | 434 kts | 297° |
| 2026-05-08 10:03 | 52.56290 | -4.05494 | 34057 ft | 434 kts | 297° |
| 2026-05-08 10:03 | 52.59348 | -4.14073 | 34053 ft | 435 kts | 297° |
| 2026-05-08 10:04 | 52.62400 | -4.22668 | 34060 ft | 434 kts | 297° |
| 2026-05-08 10:04 | 52.65439 | -4.31255 | 34062 ft | 434 kts | 297° |
| 2026-05-08 10:05 | 52.68454 | -4.39806 | 34084 ft | 434 kts | 296° |
| 2026-05-08 10:05 | 52.71485 | -4.48428 | 34072 ft | 435 kts | 296° |
| 2026-05-08 10:06 | 52.74508 | -4.57065 | 34080 ft | 435 kts | 296° |
| 2026-05-08 10:06 | 52.77532 | -4.65727 | 34071 ft | 435 kts | 296° |
| 2026-05-08 10:07 | 52.80541 | -4.74374 | 34067 ft | 434 kts | 296° |
| 2026-05-08 10:07 | 52.83544 | -4.83039 | 34067 ft | 434 kts | 295° |
| 2026-05-08 10:08 | 52.86544 | -4.91726 | 34071 ft | 434 kts | 295° |
| 2026-05-08 10:08 | 52.89535 | -5.00416 | 34070 ft | 434 kts | 295° |
| 2026-05-08 10:09 | 52.92496 | -5.09047 | 34067 ft | 434 kts | 295° |
| 2026-05-08 10:09 | 52.95473 | -5.17758 | 34072 ft | 434 kts | 295° |
| 2026-05-08 10:10 | 52.98450 | -5.26500 | 34071 ft | 434 kts | 295° |
| 2026-05-08 10:10 | 53.01315 | -5.34943 | 34070 ft | 434 kts | 295° |
| 2026-05-08 10:11 | 53.04154 | -5.43333 | 34065 ft | 434 kts | 294° |
| 2026-05-08 10:11 | 53.07110 | -5.52083 | 34065 ft | 434 kts | 295° |
| 2026-05-08 10:12 | 53.10128 | -5.60814 | 34062 ft | 435 kts | 295° |
| 2026-05-08 10:12 | 53.13158 | -5.69534 | 34077 ft | 435 kts | 295° |
| 2026-05-08 10:13 | 53.16177 | -5.78274 | 34062 ft | 435 kts | 295° |
| 2026-05-08 10:13 | 53.19168 | -5.86982 | 34057 ft | 435 kts | 295° |
| 2026-05-08 10:14 | 53.22162 | -5.95740 | 34051 ft | 434 kts | 295° |
| 2026-05-08 10:14 | 53.25147 | -6.04499 | 34051 ft | 434 kts | 295° |
| 2026-05-08 10:15 | 53.28129 | -6.13283 | 34050 ft | 434 kts | 295° |